»·PEaware :: UAL386 KJAC-KDEN

UAL386 :: KJAC-KDEN

FLIGHT INFORMATION

Flight Status: Arrived
Operator:
United Airlines
More flights by this operator :: More flights under this callsign
Pilot: Jaden S. (17663)
Aircraft: AIRBUS A320
(A320)
More flights by this aircraft type
Origin: KJAC Jackson Hole
United States
Destination: KDEN Denver Intl
United States
More flights between these airports :: More routes between these airports
Route: ALPIN2 KICNE OCS GWEDO FRNCH3
File this flight plan on PilotEdge
Remarks:
Altitude:
(Current/Filed)
37,000ft
Speed:
(Current/Filed)
400kts
Departed: 05-Jan-18 09:09 AM
Arrived: 05-Jan-18 10:06 AM
Distance/Time
Traveled:
352nm/0:57
Distance/Time
To Go:
Arrived

Flight Plot

Page will automatically refresh every two minutes.

Flight plan parsing failed; only flown route is shown


Map Options




Map Legend


Flown Route
Filed Route
Departure Airport
Arrival Airport
Navaid (VOR, NDB)
Fix

Horizontal Profiles

Position Reports

Time Latitude Longitude Heading Altitude Ground
Speed
05-Jan-18 09:00 43.602336 -110.737440 109 6465ft 0kts
05-Jan-18 09:01 43.602336 -110.737440 109 6465ft 0kts
05-Jan-18 09:02 43.602336 -110.737440 109 6465ft 0kts
05-Jan-18 09:03 43.602336 -110.737440 109 6465ft 0kts
05-Jan-18 09:04 43.602336 -110.737440 109 6465ft 0kts
05-Jan-18 09:05 43.602336 -110.737440 109 6465ft 0kts
05-Jan-18 09:06 43.602336 -110.737440 109 6465ft 0kts
05-Jan-18 09:07 43.602336 -110.737440 109 6465ft 0kts
05-Jan-18 09:08 43.602378 -110.737601 109 6465ft 2kts
05-Jan-18 09:09 43.602566 -110.738321 109 6465ft 0kts
05-Jan-18 09:10 43.602566 -110.738319 109 6465ft 0kts
05-Jan-18 09:11 43.602616 -110.738122 44 6465ft 3kts
05-Jan-18 09:12 43.605218 -110.737006 20 6465ft 15kts
05-Jan-18 09:13 43.609160 -110.735102 18 6465ft 19kts
05-Jan-18 09:14 43.614738 -110.732641 342 6465ft 18kts
05-Jan-18 09:15 43.596693 -110.742927 200 6868ft 144kts
05-Jan-18 09:16 43.558263 -110.766894 204 8460ft 187kts
05-Jan-18 09:17 43.498559 -110.805758 203 10522ft 283kts
05-Jan-18 09:18 43.418028 -110.857431 204 14116ft 335kts
05-Jan-18 09:19 43.332496 -110.911526 204 17864ft 366kts
05-Jan-18 09:20 43.240364 -110.871307 145 21280ft 412kts
05-Jan-18 09:21 43.145482 -110.774456 145 23853ft 438kts
05-Jan-18 09:22 43.046972 -110.671236 146 26263ft 454kts
05-Jan-18 09:23 42.946005 -110.561932 145 28354ft 467kts
05-Jan-18 09:24 42.843693 -110.450025 145 30065ft 477kts
05-Jan-18 09:25 42.739494 -110.335377 145 31465ft 487kts
05-Jan-18 09:26 42.633925 -110.217841 144 32881ft 490kts
05-Jan-18 09:27 42.529909 -110.100377 144 34364ft 486kts
05-Jan-18 09:28 42.426411 -109.982459 145 35716ft 487kts
05-Jan-18 09:29 42.321439 -109.865372 145 37082ft 489kts
05-Jan-18 09:30 42.216483 -109.748289 144 37331ft 487kts
05-Jan-18 09:31 42.111945 -109.631453 144 37327ft 487kts
05-Jan-18 09:32 42.007255 -109.515720 145 37327ft 488kts
05-Jan-18 09:33 41.902603 -109.400560 145 37327ft 489kts
05-Jan-18 09:34 41.796741 -109.284485 145 37328ft 489kts
05-Jan-18 09:35 41.691110 -109.169795 148 37327ft 488kts
05-Jan-18 09:36 41.598622 -109.035995 119 37328ft 504kts
05-Jan-18 09:37 41.544175 -108.862811 113 37330ft 505kts
05-Jan-18 09:38 41.491106 -108.688540 113 37333ft 507kts
05-Jan-18 09:39 41.437908 -108.514321 113 37337ft 508kts
05-Jan-18 09:40 41.384608 -108.340523 113 37340ft 507kts
05-Jan-18 09:41 41.328333 -108.168403 119 37345ft 506kts
05-Jan-18 09:42 41.262404 -108.002308 119 37348ft 506kts
05-Jan-18 09:43 41.196603 -107.836491 119 37349ft 508kts
05-Jan-18 09:44 41.131055 -107.670779 119 37353ft 508kts
05-Jan-18 09:45 41.065163 -107.504547 119 37360ft 508kts
05-Jan-18 09:46 40.999427 -107.339289 119 37370ft 508kts
05-Jan-18 09:47 40.933140 -107.173534 119 37370ft 508kts
05-Jan-18 09:48 40.866937 -107.008719 119 37373ft 508kts
05-Jan-18 09:49 40.800459 -106.844062 119 37379ft 508kts
05-Jan-18 09:50 40.733502 -106.679182 119 37306ft 510kts
05-Jan-18 09:51 40.667555 -106.517444 119 35028ft 493kts
05-Jan-18 09:52 40.603415 -106.361106 119 32436ft 485kts
05-Jan-18 09:53 40.537613 -106.205128 120 29861ft 487kts
05-Jan-18 09:54 40.470899 -106.049348 118 26603ft 491kts
05-Jan-18 09:55 40.427704 -105.883627 99 22922ft 468kts
05-Jan-18 09:56 40.401941 -105.720264 99 19240ft 448kts
05-Jan-18 09:57 40.378515 -105.573050 99 17753ft 359kts
05-Jan-18 09:58 40.359075 -105.451027 99 17170ft 334kts
05-Jan-18 09:59 40.341821 -105.327583 97 15882ft 343kts
05-Jan-18 10:00 40.325403 -105.207282 97 14576ft 335kts
05-Jan-18 10:01 40.308813 -105.087097 97 13275ft 326kts
05-Jan-18 10:02 40.272721 -104.975755 115 12763ft 308kts
05-Jan-18 10:03 40.234535 -104.884340 118 11108ft 270kts
05-Jan-18 10:04 40.199462 -104.801864 118 9268ft 248kts
05-Jan-18 10:08 40.018400 -104.685483 181 7795ft 201kts
05-Jan-18 10:09 39.966184 -104.686018 180 6798ft 171kts
05-Jan-18 10:10 39.925920 -104.686478 180 5967ft 129kts
05-Jan-18 10:11 39.890473 -104.686864 180 5445ft 104kts
05-Jan-18 10:12 39.876782 -104.685952 152 5445ft 13kts
05-Jan-18 10:13 39.872649 -104.684966 182 5445ft 17kts
05-Jan-18 10:14 39.867219 -104.685007 180 5445ft 21kts
05-Jan-18 10:15 39.861280 -104.685083 180 5445ft 19kts
05-Jan-18 10:16 39.860233 -104.679537 106 5445ft 13kts
05-Jan-18 10:17 39.859410 -104.676871 179 5445ft 0kts
05-Jan-18 10:18 39.859410 -104.676871 179 5445ft 0kts

Navigation Log

Ident Type
Flight plan parsing failed, navigation log unavailable